sensor_id;sensor_type;location;lat;lon;timestamp;P1;durP1;ratioP1;P2;durP2;ratioP2
21183;SDS011;18176;49.502;11.754;2023-04-15T00:01:36;11.27;;;9.30;;
21183;SDS011;18176;49.502;11.754;2023-04-15T00:05:36;12.80;;;9.47;;
21183;SDS011;18176;49.502;11.754;2023-04-15T00:09:39;10.27;;;8.57;;
21183;SDS011;18176;49.502;11.754;2023-04-15T00:13:40;12.27;;;9.70;;
21183;SDS011;18176;49.502;11.754;2023-04-15T00:17:41;10.93;;;9.10;;
21183;SDS011;18176;49.502;11.754;2023-04-15T00:21:41;11.40;;;8.70;;
21183;SDS011;18176;49.502;11.754;2023-04-15T00:25:44;11.23;;;8.73;;
21183;SDS011;18176;49.502;11.754;2023-04-15T00:29:44;11.73;;;8.30;;
21183;SDS011;18176;49.502;11.754;2023-04-15T00:33:44;11.03;;;8.20;;
21183;SDS011;18176;49.502;11.754;2023-04-15T00:37:45;12.13;;;8.33;;
21183;SDS011;18176;49.502;11.754;2023-04-15T00:41:48;10.20;;;8.17;;
21183;SDS011;18176;49.502;11.754;2023-04-15T00:45:48;10.27;;;7.93;;
21183;SDS011;18176;49.502;11.754;2023-04-15T00:49:52;10.30;;;7.80;;
21183;SDS011;18176;49.502;11.754;2023-04-15T00:53:53;9.03;;;7.17;;
21183;SDS011;18176;49.502;11.754;2023-04-15T00:57:56;9.13;;;7.50;;
21183;SDS011;18176;49.502;11.754;2023-04-15T01:01:58;8.93;;;7.73;;
21183;SDS011;18176;49.502;11.754;2023-04-15T01:05:59;8.73;;;7.07;;
21183;SDS011;18176;49.502;11.754;2023-04-15T01:09:59;10.00;;;7.30;;
21183;SDS011;18176;49.502;11.754;2023-04-15T01:14:05;8.17;;;6.83;;
21183;SDS011;18176;49.502;11.754;2023-04-15T01:18:07;8.80;;;7.40;;
21183;SDS011;18176;49.502;11.754;2023-04-15T01:22:08;8.50;;;6.93;;
21183;SDS011;18176;49.502;11.754;2023-04-15T01:26:11;10.47;;;7.03;;
21183;SDS011;18176;49.502;11.754;2023-04-15T01:30:14;8.83;;;6.83;;
21183;SDS011;18176;49.502;11.754;2023-04-15T01:34:15;8.37;;;7.00;;
21183;SDS011;18176;49.502;11.754;2023-04-15T01:38:15;8.10;;;6.37;;
21183;SDS011;18176;49.502;11.754;2023-04-15T01:42:19;7.37;;;6.17;;
21183;SDS011;18176;49.502;11.754;2023-04-15T01:46:20;8.60;;;6.67;;
21183;SDS011;18176;49.502;11.754;2023-04-15T01:50:22;7.10;;;6.03;;
21183;SDS011;18176;49.502;11.754;2023-04-15T01:54:24;7.97;;;6.37;;
21183;SDS011;18176;49.502;11.754;2023-04-15T01:58:27;7.00;;;5.80;;
21183;SDS011;18176;49.502;11.754;2023-04-15T02:02:27;7.40;;;5.97;;
21183;SDS011;18176;49.502;11.754;2023-04-15T02:06:28;6.90;;;6.00;;
21183;SDS011;18176;49.502;11.754;2023-04-15T02:10:28;6.67;;;5.97;;
21183;SDS011;18176;49.502;11.754;2023-04-15T02:14:31;7.50;;;6.00;;
21183;SDS011;18176;49.502;11.754;2023-04-15T02:18:31;8.20;;;6.20;;
21183;SDS011;18176;49.502;11.754;2023-04-15T02:22:32;7.10;;;6.00;;
21183;SDS011;18176;49.502;11.754;2023-04-15T02:26:32;8.20;;;6.10;;
21183;SDS011;18176;49.502;11.754;2023-04-15T02:30:35;7.40;;;6.37;;
21183;SDS011;18176;49.502;11.754;2023-04-15T02:34:36;7.70;;;6.23;;
21183;SDS011;18176;49.502;11.754;2023-04-15T02:38:38;12.40;;;6.33;;
21183;SDS011;18176;49.502;11.754;2023-04-15T02:42:39;7.03;;;5.80;;
21183;SDS011;18176;49.502;11.754;2023-04-15T02:46:46;6.87;;;5.93;;
21183;SDS011;18176;49.502;11.754;2023-04-15T02:50:49;9.43;;;6.33;;
21183;SDS011;18176;49.502;11.754;2023-04-15T02:54:50;9.27;;;6.00;;
21183;SDS011;18176;49.502;11.754;2023-04-15T02:58:53;9.07;;;6.30;;
21183;SDS011;18176;49.502;11.754;2023-04-15T03:03:00;8.17;;;6.13;;
21183;SDS011;18176;49.502;11.754;2023-04-15T03:07:03;8.57;;;6.50;;
21183;SDS011;18176;49.502;11.754;2023-04-15T03:11:03;8.60;;;6.30;;
21183;SDS011;18176;49.502;11.754;2023-04-15T03:15:05;8.53;;;6.80;;
21183;SDS011;18176;49.502;11.754;2023-04-15T03:19:15;7.63;;;6.43;;
21183;SDS011;18176;49.502;11.754;2023-04-15T03:23:16;8.90;;;6.57;;
21183;SDS011;18176;49.502;11.754;2023-04-15T03:27:18;7.63;;;6.60;;
21183;SDS011;18176;49.502;11.754;2023-04-15T03:31:19;8.87;;;6.87;;
21183;SDS011;18176;49.502;11.754;2023-04-15T03:35:22;8.77;;;6.90;;
21183;SDS011;18176;49.502;11.754;2023-04-15T03:39:22;9.33;;;7.40;;
21183;SDS011;18176;49.502;11.754;2023-04-15T03:43:22;12.50;;;7.60;;
21183;SDS011;18176;49.502;11.754;2023-04-15T03:47:23;9.37;;;7.10;;
21183;SDS011;18176;49.502;11.754;2023-04-15T03:51:26;8.63;;;7.17;;
21183;SDS011;18176;49.502;11.754;2023-04-15T03:55:26;11.03;;;7.10;;
21183;SDS011;18176;49.502;11.754;2023-04-15T03:59:27;10.60;;;8.13;;
21183;SDS011;18176;49.502;11.754;2023-04-15T04:03:27;12.27;;;7.63;;
21183;SDS011;18176;49.502;11.754;2023-04-15T04:07:30;9.83;;;7.70;;
21183;SDS011;18176;49.502;11.754;2023-04-15T04:11:30;10.77;;;8.37;;
21183;SDS011;18176;49.502;11.754;2023-04-15T04:15:31;12.67;;;8.77;;
21183;SDS011;18176;49.502;11.754;2023-04-15T04:19:32;12.07;;;8.33;;
21183;SDS011;18176;49.502;11.754;2023-04-15T04:23:35;10.73;;;7.83;;
21183;SDS011;18176;49.502;11.754;2023-04-15T04:27:36;10.93;;;8.70;;
21183;SDS011;18176;49.502;11.754;2023-04-15T04:31:37;10.03;;;8.40;;
21183;SDS011;18176;49.502;11.754;2023-04-15T04:35:37;10.43;;;8.70;;
21183;SDS011;18176;49.502;11.754;2023-04-15T04:39:40;11.50;;;8.77;;
21183;SDS011;18176;49.502;11.754;2023-04-15T04:43:40;11.50;;;9.00;;
21183;SDS011;18176;49.502;11.754;2023-04-15T04:47:40;11.50;;;8.53;;
21183;SDS011;18176;49.502;11.754;2023-04-15T04:51:40;12.63;;;9.80;;
21183;SDS011;18176;49.502;11.754;2023-04-15T04:55:45;10.53;;;9.00;;
21183;SDS011;18176;49.502;11.754;2023-04-15T04:59:45;11.63;;;9.67;;
21183;SDS011;18176;49.502;11.754;2023-04-15T05:03:47;11.43;;;9.13;;
21183;SDS011;18176;49.502;11.754;2023-04-15T05:07:47;13.27;;;8.53;;
21183;SDS011;18176;49.502;11.754;2023-04-15T05:11:50;10.03;;;8.27;;
21183;SDS011;18176;49.502;11.754;2023-04-15T05:15:52;11.23;;;8.90;;
21183;SDS011;18176;49.502;11.754;2023-04-15T05:19:52;9.70;;;7.83;;
21183;SDS011;18176;49.502;11.754;2023-04-15T05:23:52;9.47;;;7.97;;
21183;SDS011;18176;49.502;11.754;2023-04-15T05:27:55;11.10;;;7.97;;
21183;SDS011;18176;49.502;11.754;2023-04-15T05:31:56;11.37;;;7.93;;
21183;SDS011;18176;49.502;11.754;2023-04-15T05:35:56;10.47;;;7.80;;
21183;SDS011;18176;49.502;11.754;2023-04-15T05:39:56;9.63;;;7.37;;
21183;SDS011;18176;49.502;11.754;2023-04-15T05:43:59;8.63;;;7.10;;
21183;SDS011;18176;49.502;11.754;2023-04-15T05:47:59;11.00;;;7.33;;
21183;SDS011;18176;49.502;11.754;2023-04-15T05:52:00;8.90;;;6.87;;
21183;SDS011;18176;49.502;11.754;2023-04-15T05:56:00;8.27;;;6.50;;
21183;SDS011;18176;49.502;11.754;2023-04-15T06:00:04;7.70;;;5.63;;
21183;SDS011;18176;49.502;11.754;2023-04-15T06:04:06;7.93;;;6.30;;
21183;SDS011;18176;49.502;11.754;2023-04-15T06:08:07;8.07;;;5.80;;
21183;SDS011;18176;49.502;11.754;2023-04-15T06:12:08;9.23;;;5.73;;
21183;SDS011;18176;49.502;11.754;2023-04-15T06:16:11;7.10;;;5.53;;
21183;SDS011;18176;49.502;11.754;2023-04-15T06:20:11;10.10;;;6.80;;
21183;SDS011;18176;49.502;11.754;2023-04-15T06:24:11;10.30;;;6.67;;
21183;SDS011;18176;49.502;11.754;2023-04-15T06:28:12;6.77;;;5.47;;
21183;SDS011;18176;49.502;11.754;2023-04-15T06:32:15;7.13;;;5.40;;
21183;SDS011;18176;49.502;11.754;2023-04-15T06:36:15;8.83;;;5.83;;
21183;SDS011;18176;49.502;11.754;2023-04-15T06:40:16;7.33;;;5.57;;
21183;SDS011;18176;49.502;11.754;2023-04-15T06:44:16;7.33;;;5.83;;
21183;SDS011;18176;49.502;11.754;2023-04-15T06:48:19;8.53;;;6.30;;
21183;SDS011;18176;49.502;11.754;2023-04-15T06:52:19;7.57;;;5.47;;
21183;SDS011;18176;49.502;11.754;2023-04-15T06:56:20;8.90;;;5.87;;
21183;SDS011;18176;49.502;11.754;2023-04-15T07:00:20;7.57;;;5.27;;
21183;SDS011;18176;49.502;11.754;2023-04-15T07:04:23;7.10;;;5.47;;
21183;SDS011;18176;49.502;11.754;2023-04-15T07:08:24;6.70;;;5.30;;
21183;SDS011;18176;49.502;11.754;2023-04-15T07:12:24;4.30;;;3.87;;
21183;SDS011;18176;49.502;11.754;2023-04-15T07:16:25;5.60;;;4.37;;
21183;SDS011;18176;49.502;11.754;2023-04-15T07:20:28;6.10;;;4.70;;
21183;SDS011;18176;49.502;11.754;2023-04-15T07:24:28;6.60;;;5.17;;
21183;SDS011;18176;49.502;11.754;2023-04-15T07:28:28;5.93;;;4.90;;
21183;SDS011;18176;49.502;11.754;2023-04-15T07:32:28;6.00;;;4.90;;
21183;SDS011;18176;49.502;11.754;2023-04-15T07:36:31;6.17;;;4.87;;
21183;SDS011;18176;49.502;11.754;2023-04-15T07:40:32;8.67;;;4.90;;
21183;SDS011;18176;49.502;11.754;2023-04-15T07:44:32;5.73;;;5.00;;
21183;SDS011;18176;49.502;11.754;2023-04-15T07:48:32;7.40;;;5.30;;
21183;SDS011;18176;49.502;11.754;2023-04-15T07:52:35;5.30;;;4.40;;
21183;SDS011;18176;49.502;11.754;2023-04-15T07:56:37;5.97;;;4.70;;
21183;SDS011;18176;49.502;11.754;2023-04-15T08:00:37;4.53;;;3.53;;
21183;SDS011;18176;49.502;11.754;2023-04-15T08:04:39;4.07;;;3.67;;
21183;SDS011;18176;49.502;11.754;2023-04-15T08:08:42;3.77;;;3.37;;
21183;SDS011;18176;49.502;11.754;2023-04-15T08:12:43;4.70;;;3.20;;
21183;SDS011;18176;49.502;11.754;2023-04-15T08:16:44;3.97;;;3.27;;
21183;SDS011;18176;49.502;11.754;2023-04-15T08:20:44;4.60;;;3.37;;
21183;SDS011;18176;49.502;11.754;2023-04-15T08:24:47;8.23;;;4.87;;
21183;SDS011;18176;49.502;11.754;2023-04-15T08:28:48;4.63;;;3.63;;
21183;SDS011;18176;49.502;11.754;2023-04-15T08:32:48;6.27;;;4.70;;
21183;SDS011;18176;49.502;11.754;2023-04-15T08:36:49;6.10;;;4.90;;
21183;SDS011;18176;49.502;11.754;2023-04-15T08:40:52;4.67;;;3.37;;
21183;SDS011;18176;49.502;11.754;2023-04-15T08:44:54;3.70;;;3.20;;
21183;SDS011;18176;49.502;11.754;2023-04-15T08:48:57;4.33;;;3.70;;
21183;SDS011;18176;49.502;11.754;2023-04-15T08:52:58;3.97;;;3.37;;
21183;SDS011;18176;49.502;11.754;2023-04-15T08:57:01;4.53;;;3.10;;
21183;SDS011;18176;49.502;11.754;2023-04-15T09:01:02;4.23;;;3.27;;
21183;SDS011;18176;49.502;11.754;2023-04-15T09:05:03;3.67;;;3.10;;
21183;SDS011;18176;49.502;11.754;2023-04-15T09:09:06;3.87;;;2.87;;
21183;SDS011;18176;49.502;11.754;2023-04-15T09:13:08;5.27;;;3.77;;
21183;SDS011;18176;49.502;11.754;2023-04-15T09:17:09;5.20;;;3.80;;
21183;SDS011;18176;49.502;11.754;2023-04-15T09:21:10;7.00;;;4.43;;
21183;SDS011;18176;49.502;11.754;2023-04-15T09:25:26;5.50;;;4.13;;
21183;SDS011;18176;49.502;11.754;2023-04-15T09:29:33;4.13;;;3.60;;
21183;SDS011;18176;49.502;11.754;2023-04-15T09:33:40;3.13;;;2.83;;
21183;SDS011;18176;49.502;11.754;2023-04-15T09:38:01;3.83;;;3.03;;
21183;SDS011;18176;49.502;11.754;2023-04-15T09:42:08;3.00;;;2.70;;
21183;SDS011;18176;49.502;11.754;2023-04-15T09:46:12;2.50;;;2.30;;
21183;SDS011;18176;49.502;11.754;2023-04-15T09:50:15;2.80;;;2.50;;
21183;SDS011;18176;49.502;11.754;2023-04-15T09:54:18;2.17;;;1.97;;
21183;SDS011;18176;49.502;11.754;2023-04-15T09:58:20;2.00;;;1.80;;
21183;SDS011;18176;49.502;11.754;2023-04-15T10:02:27;1.97;;;1.80;;
21183;SDS011;18176;49.502;11.754;2023-04-15T10:06:30;2.20;;;1.93;;
21183;SDS011;18176;49.502;11.754;2023-04-15T10:10:34;1.77;;;1.50;;
21183;SDS011;18176;49.502;11.754;2023-04-15T10:14:34;2.33;;;1.70;;
21183;SDS011;18176;49.502;11.754;2023-04-15T10:18:41;2.47;;;1.40;;
21183;SDS011;18176;49.502;11.754;2023-04-15T10:22:43;2.20;;;2.00;;
21183;SDS011;18176;49.502;11.754;2023-04-15T10:26:45;2.50;;;2.00;;
21183;SDS011;18176;49.502;11.754;2023-04-15T10:30:48;1.93;;;1.80;;
21183;SDS011;18176;49.502;11.754;2023-04-15T10:34:55;1.63;;;1.53;;
21183;SDS011;18176;49.502;11.754;2023-04-15T10:39:00;2.07;;;1.80;;
21183;SDS011;18176;49.502;11.754;2023-04-15T10:43:02;2.80;;;2.20;;
21183;SDS011;18176;49.502;11.754;2023-04-15T10:47:08;2.50;;;2.30;;
21183;SDS011;18176;49.502;11.754;2023-04-15T10:51:13;1.73;;;1.63;;
21183;SDS011;18176;49.502;11.754;2023-04-15T10:55:15;1.50;;;1.40;;
21183;SDS011;18176;49.502;11.754;2023-04-15T10:59:20;1.80;;;1.70;;
21183;SDS011;18176;49.502;11.754;2023-04-15T11:03:33;2.50;;;1.60;;
21183;SDS011;18176;49.502;11.754;2023-04-15T11:07:40;2.40;;;2.00;;
21183;SDS011;18176;49.502;11.754;2023-04-15T11:12:03;2.20;;;2.00;;
21183;SDS011;18176;49.502;11.754;2023-04-15T11:16:06;4.50;;;2.37;;
21183;SDS011;18176;49.502;11.754;2023-04-15T11:20:06;4.50;;;3.07;;
21183;SDS011;18176;49.502;11.754;2023-04-15T11:24:10;2.27;;;2.00;;
21183;SDS011;18176;49.502;11.754;2023-04-15T11:28:21;3.57;;;2.67;;
21183;SDS011;18176;49.502;11.754;2023-04-15T11:32:25;6.80;;;3.80;;
21183;SDS011;18176;49.502;11.754;2023-04-15T11:36:26;2.30;;;2.00;;
21183;SDS011;18176;49.502;11.754;2023-04-15T11:40:31;3.90;;;2.87;;
21183;SDS011;18176;49.502;11.754;2023-04-15T11:44:31;3.53;;;2.50;;
21183;SDS011;18176;49.502;11.754;2023-04-15T11:48:32;5.13;;;2.37;;
21183;SDS011;18176;49.502;11.754;2023-04-15T11:52:34;3.60;;;2.63;;
21183;SDS011;18176;49.502;11.754;2023-04-15T11:56:37;3.20;;;2.33;;
21183;SDS011;18176;49.502;11.754;2023-04-15T12:00:38;4.00;;;2.03;;
21183;SDS011;18176;49.502;11.754;2023-04-15T12:04:39;2.47;;;2.10;;
21183;SDS011;18176;49.502;11.754;2023-04-15T12:08:49;3.67;;;2.10;;
21183;SDS011;18176;49.502;11.754;2023-04-15T12:13:07;3.10;;;2.60;;
21183;SDS011;18176;49.502;11.754;2023-04-15T12:17:09;2.80;;;2.00;;
21183;SDS011;18176;49.502;11.754;2023-04-15T12:21:09;2.17;;;1.97;;
21183;SDS011;18176;49.502;11.754;2023-04-15T12:25:11;2.67;;;2.20;;
21183;SDS011;18176;49.502;11.754;2023-04-15T12:29:14;2.70;;;2.37;;
21183;SDS011;18176;49.502;11.754;2023-04-15T12:33:15;2.30;;;2.10;;
21183;SDS011;18176;49.502;11.754;2023-04-15T12:37:15;2.57;;;2.10;;
21183;SDS011;18176;49.502;11.754;2023-04-15T12:41:17;2.97;;;2.40;;
21183;SDS011;18176;49.502;11.754;2023-04-15T12:45:22;3.90;;;2.20;;
21183;SDS011;18176;49.502;11.754;2023-04-15T12:49:25;2.83;;;2.30;;
21183;SDS011;18176;49.502;11.754;2023-04-15T12:53:26;3.60;;;2.60;;
21183;SDS011;18176;49.502;11.754;2023-04-15T12:57:26;2.83;;;2.47;;
21183;SDS011;18176;49.502;11.754;2023-04-15T13:01:29;2.17;;;1.97;;
21183;SDS011;18176;49.502;11.754;2023-04-15T13:05:30;3.37;;;2.60;;
21183;SDS011;18176;49.502;11.754;2023-04-15T13:09:32;2.70;;;2.40;;
21183;SDS011;18176;49.502;11.754;2023-04-15T13:13:33;2.77;;;2.20;;
21183;SDS011;18176;49.502;11.754;2023-04-15T13:17:36;3.40;;;2.10;;
21183;SDS011;18176;49.502;11.754;2023-04-15T13:21:37;2.40;;;1.90;;
21183;SDS011;18176;49.502;11.754;2023-04-15T13:25:37;2.40;;;2.20;;
21183;SDS011;18176;49.502;11.754;2023-04-15T13:29:38;2.97;;;2.30;;
21183;SDS011;18176;49.502;11.754;2023-04-15T13:33:41;3.30;;;2.30;;
21183;SDS011;18176;49.502;11.754;2023-04-15T13:37:41;2.50;;;2.30;;
21183;SDS011;18176;49.502;11.754;2023-04-15T13:41:42;4.13;;;3.10;;
21183;SDS011;18176;49.502;11.754;2023-04-15T13:45:45;2.67;;;2.43;;
21183;SDS011;18176;49.502;11.754;2023-04-15T13:49:49;3.30;;;2.80;;
21183;SDS011;18176;49.502;11.754;2023-04-15T13:53:51;3.47;;;2.77;;
21183;SDS011;18176;49.502;11.754;2023-04-15T13:57:53;4.17;;;3.10;;
21183;SDS011;18176;49.502;11.754;2023-04-15T14:01:54;2.80;;;2.43;;
21183;SDS011;18176;49.502;11.754;2023-04-15T14:05:57;3.10;;;2.80;;
21183;SDS011;18176;49.502;11.754;2023-04-15T14:09:58;3.30;;;2.90;;
21183;SDS011;18176;49.502;11.754;2023-04-15T14:14:00;4.73;;;3.03;;
21183;SDS011;18176;49.502;11.754;2023-04-15T14:18:01;3.23;;;2.73;;
21183;SDS011;18176;49.502;11.754;2023-04-15T14:22:03;2.73;;;2.33;;
21183;SDS011;18176;49.502;11.754;2023-04-15T14:26:04;2.40;;;2.20;;
21183;SDS011;18176;49.502;11.754;2023-04-15T14:30:05;3.60;;;2.63;;
21183;SDS011;18176;49.502;11.754;2023-04-15T14:34:08;2.93;;;2.50;;
21183;SDS011;18176;49.502;11.754;2023-04-15T14:38:11;4.70;;;3.30;;
21183;SDS011;18176;49.502;11.754;2023-04-15T14:42:12;5.67;;;4.40;;
21183;SDS011;18176;49.502;11.754;2023-04-15T14:46:12;4.70;;;3.40;;
21183;SDS011;18176;49.502;11.754;2023-04-15T14:50:12;5.07;;;3.30;;
21183;SDS011;18176;49.502;11.754;2023-04-15T14:54:15;4.13;;;3.67;;
21183;SDS011;18176;49.502;11.754;2023-04-15T14:58:18;4.70;;;3.57;;
21183;SDS011;18176;49.502;11.754;2023-04-15T15:02:18;4.20;;;3.40;;
21183;SDS011;18176;49.502;11.754;2023-04-15T15:06:34;4.30;;;3.80;;
21183;SDS011;18176;49.502;11.754;2023-04-15T15:10:38;3.93;;;3.20;;
21183;SDS011;18176;49.502;11.754;2023-04-15T15:14:45;4.00;;;3.60;;
21183;SDS011;18176;49.502;11.754;2023-04-15T15:18:45;4.30;;;3.37;;
21183;SDS011;18176;49.502;11.754;2023-04-15T15:22:46;4.50;;;3.50;;
21183;SDS011;18176;49.502;11.754;2023-04-15T15:26:49;5.93;;;5.03;;
21183;SDS011;18176;49.502;11.754;2023-04-15T15:30:50;4.93;;;3.90;;
21183;SDS011;18176;49.502;11.754;2023-04-15T15:34:51;3.80;;;3.40;;
21183;SDS011;18176;49.502;11.754;2023-04-15T15:38:51;4.03;;;3.30;;
21183;SDS011;18176;49.502;11.754;2023-04-15T15:42:54;4.40;;;3.80;;
21183;SDS011;18176;49.502;11.754;2023-04-15T15:46:54;6.20;;;3.80;;
21183;SDS011;18176;49.502;11.754;2023-04-15T15:50:55;6.17;;;4.23;;
21183;SDS011;18176;49.502;11.754;2023-04-15T15:54:55;6.93;;;4.87;;
21183;SDS011;18176;49.502;11.754;2023-04-15T15:58:58;3.87;;;3.47;;
21183;SDS011;18176;49.502;11.754;2023-04-15T16:03:00;8.27;;;4.80;;
21183;SDS011;18176;49.502;11.754;2023-04-15T16:07:02;7.60;;;5.03;;
21183;SDS011;18176;49.502;11.754;2023-04-15T16:11:04;4.43;;;3.47;;
21183;SDS011;18176;49.502;11.754;2023-04-15T16:15:08;4.80;;;3.77;;
21183;SDS011;18176;49.502;11.754;2023-04-15T16:19:10;5.33;;;3.63;;
21183;SDS011;18176;49.502;11.754;2023-04-15T16:23:13;5.17;;;4.30;;
21183;SDS011;18176;49.502;11.754;2023-04-15T16:27:15;6.57;;;4.90;;
21183;SDS011;18176;49.502;11.754;2023-04-15T16:31:19;6.80;;;5.67;;
21183;SDS011;18176;49.502;11.754;2023-04-15T16:35:20;5.63;;;4.57;;
21183;SDS011;18176;49.502;11.754;2023-04-15T16:39:20;6.37;;;5.50;;
21183;SDS011;18176;49.502;11.754;2023-04-15T16:43:20;7.03;;;5.57;;
21183;SDS011;18176;49.502;11.754;2023-04-15T16:47:26;6.40;;;4.90;;
21183;SDS011;18176;49.502;11.754;2023-04-15T16:51:27;8.07;;;6.00;;
21183;SDS011;18176;49.502;11.754;2023-04-15T16:55:29;6.47;;;4.97;;
21183;SDS011;18176;49.502;11.754;2023-04-15T16:59:29;12.03;;;8.80;;
21183;SDS011;18176;49.502;11.754;2023-04-15T17:03:32;7.53;;;5.40;;
21183;SDS011;18176;49.502;11.754;2023-04-15T17:07:32;11.90;;;6.63;;
21183;SDS011;18176;49.502;11.754;2023-04-15T17:11:32;5.20;;;4.20;;
21183;SDS011;18176;49.502;11.754;2023-04-15T17:15:34;7.27;;;6.23;;
21183;SDS011;18176;49.502;11.754;2023-04-15T17:19:37;11.00;;;7.13;;
21183;SDS011;18176;49.502;11.754;2023-04-15T17:23:37;5.17;;;3.70;;
21183;SDS011;18176;49.502;11.754;2023-04-15T17:27:37;10.40;;;7.10;;
21183;SDS011;18176;49.502;11.754;2023-04-15T17:31:37;15.17;;;9.20;;
21183;SDS011;18176;49.502;11.754;2023-04-15T17:35:40;12.70;;;8.63;;
21183;SDS011;18176;49.502;11.754;2023-04-15T17:39:41;12.43;;;7.67;;
21183;SDS011;18176;49.502;11.754;2023-04-15T17:43:41;12.40;;;7.13;;
21183;SDS011;18176;49.502;11.754;2023-04-15T17:47:42;12.40;;;6.83;;
21183;SDS011;18176;49.502;11.754;2023-04-15T17:51:44;6.20;;;4.63;;
21183;SDS011;18176;49.502;11.754;2023-04-15T17:55:45;6.43;;;4.70;;
21183;SDS011;18176;49.502;11.754;2023-04-15T17:59:46;8.00;;;5.50;;
21183;SDS011;18176;49.502;11.754;2023-04-15T18:03:46;8.77;;;5.23;;
21183;SDS011;18176;49.502;11.754;2023-04-15T18:07:52;9.50;;;6.10;;
21183;SDS011;18176;49.502;11.754;2023-04-15T18:11:52;7.50;;;5.27;;
21183;SDS011;18176;49.502;11.754;2023-04-15T18:15:52;11.67;;;6.90;;
21183;SDS011;18176;49.502;11.754;2023-04-15T18:19:55;9.93;;;7.30;;
21183;SDS011;18176;49.502;11.754;2023-04-15T18:23:59;9.47;;;7.33;;
21183;SDS011;18176;49.502;11.754;2023-04-15T18:28:00;9.67;;;5.73;;
21183;SDS011;18176;49.502;11.754;2023-04-15T18:32:01;9.03;;;5.97;;
21183;SDS011;18176;49.502;11.754;2023-04-15T18:36:02;7.77;;;5.37;;
21183;SDS011;18176;49.502;11.754;2023-04-15T18:40:05;8.33;;;6.50;;
21183;SDS011;18176;49.502;11.754;2023-04-15T18:44:07;8.07;;;5.50;;
21183;SDS011;18176;49.502;11.754;2023-04-15T18:48:08;8.77;;;6.13;;
21183;SDS011;18176;49.502;11.754;2023-04-15T18:52:12;9.50;;;6.80;;
21183;SDS011;18176;49.502;11.754;2023-04-15T18:56:15;10.53;;;7.73;;
21183;SDS011;18176;49.502;11.754;2023-04-15T19:00:16;10.07;;;6.80;;
21183;SDS011;18176;49.502;11.754;2023-04-15T19:04:16;11.20;;;7.70;;
21183;SDS011;18176;49.502;11.754;2023-04-15T19:08:16;8.37;;;6.30;;
21183;SDS011;18176;49.502;11.754;2023-04-15T19:12:19;9.80;;;7.30;;
21183;SDS011;18176;49.502;11.754;2023-04-15T19:16:21;8.80;;;6.20;;
21183;SDS011;18176;49.502;11.754;2023-04-15T19:20:21;6.60;;;5.50;;
21183;SDS011;18176;49.502;11.754;2023-04-15T19:24:21;8.50;;;6.07;;
21183;SDS011;18176;49.502;11.754;2023-04-15T19:28:24;9.97;;;6.43;;
21183;SDS011;18176;49.502;11.754;2023-04-15T19:32:25;9.57;;;6.60;;
21183;SDS011;18176;49.502;11.754;2023-04-15T19:36:26;7.93;;;5.73;;
21183;SDS011;18176;49.502;11.754;2023-04-15T19:40:27;10.97;;;7.77;;
21183;SDS011;18176;49.502;11.754;2023-04-15T19:48:38;8.07;;;5.50;;
21183;SDS011;18176;49.502;11.754;2023-04-15T19:52:38;7.93;;;5.80;;
21183;SDS011;18176;49.502;11.754;2023-04-15T19:56:38;13.43;;;7.50;;
21183;SDS011;18176;49.502;11.754;2023-04-15T20:00:41;5.00;;;4.50;;
21183;SDS011;18176;49.502;11.754;2023-04-15T20:04:41;8.23;;;4.80;;
21183;SDS011;18176;49.502;11.754;2023-04-15T20:08:42;6.73;;;5.00;;
21183;SDS011;18176;49.502;11.754;2023-04-15T20:12:42;5.53;;;4.93;;
21183;SDS011;18176;49.502;11.754;2023-04-15T20:16:50;7.10;;;5.53;;
21183;SDS011;18176;49.502;11.754;2023-04-15T20:20:50;4.57;;;4.00;;
21183;SDS011;18176;49.502;11.754;2023-04-15T20:24:51;6.63;;;4.80;;
21183;SDS011;18176;49.502;11.754;2023-04-15T20:28:52;5.83;;;4.80;;
21183;SDS011;18176;49.502;11.754;2023-04-15T20:32:55;6.70;;;4.60;;
21183;SDS011;18176;49.502;11.754;2023-04-15T20:36:57;6.97;;;4.37;;
21183;SDS011;18176;49.502;11.754;2023-04-15T20:40:57;11.23;;;7.00;;
21183;SDS011;18176;49.502;11.754;2023-04-15T20:44:57;8.90;;;6.70;;
21183;SDS011;18176;49.502;11.754;2023-04-15T20:49:01;8.53;;;6.00;;
21183;SDS011;18176;49.502;11.754;2023-04-15T20:53:02;9.30;;;6.53;;
21183;SDS011;18176;49.502;11.754;2023-04-15T20:57:03;9.17;;;6.37;;
21183;SDS011;18176;49.502;11.754;2023-04-15T21:01:03;6.23;;;5.30;;
21183;SDS011;18176;49.502;11.754;2023-04-15T21:05:06;5.90;;;4.73;;
21183;SDS011;18176;49.502;11.754;2023-04-15T21:09:07;5.70;;;5.10;;
21183;SDS011;18176;49.502;11.754;2023-04-15T21:13:07;5.83;;;4.83;;
21183;SDS011;18176;49.502;11.754;2023-04-15T21:17:10;6.03;;;4.63;;
21183;SDS011;18176;49.502;11.754;2023-04-15T21:21:14;8.93;;;4.43;;
21183;SDS011;18176;49.502;11.754;2023-04-15T21:25:15;6.00;;;4.77;;
21183;SDS011;18176;49.502;11.754;2023-04-15T21:29:15;5.93;;;4.37;;
21183;SDS011;18176;49.502;11.754;2023-04-15T21:33:16;5.77;;;4.50;;
21183;SDS011;18176;49.502;11.754;2023-04-15T21:37:20;5.77;;;4.73;;
21183;SDS011;18176;49.502;11.754;2023-04-15T21:41:20;6.93;;;4.87;;
21183;SDS011;18176;49.502;11.754;2023-04-15T21:45:20;6.63;;;4.70;;
21183;SDS011;18176;49.502;11.754;2023-04-15T21:49:21;5.27;;;4.63;;
21183;SDS011;18176;49.502;11.754;2023-04-15T21:53:23;7.47;;;5.67;;
21183;SDS011;18176;49.502;11.754;2023-04-15T21:57:24;7.07;;;5.60;;
21183;SDS011;18176;49.502;11.754;2023-04-15T22:01:25;6.00;;;5.40;;
21183;SDS011;18176;49.502;11.754;2023-04-15T22:05:26;7.77;;;5.70;;
21183;SDS011;18176;49.502;11.754;2023-04-15T22:09:28;6.50;;;5.80;;
21183;SDS011;18176;49.502;11.754;2023-04-15T22:13:28;6.30;;;5.10;;
21183;SDS011;18176;49.502;11.754;2023-04-15T22:17:29;5.73;;;4.90;;
21183;SDS011;18176;49.502;11.754;2023-04-15T22:21:29;6.73;;;5.57;;
21183;SDS011;18176;49.502;11.754;2023-04-15T22:25:32;5.77;;;5.13;;
21183;SDS011;18176;49.502;11.754;2023-04-15T22:29:32;6.50;;;5.17;;
21183;SDS011;18176;49.502;11.754;2023-04-15T22:33:33;5.63;;;5.00;;
21183;SDS011;18176;49.502;11.754;2023-04-15T22:37:34;5.40;;;4.87;;
21183;SDS011;18176;49.502;11.754;2023-04-15T22:41:37;5.60;;;4.93;;
21183;SDS011;18176;49.502;11.754;2023-04-15T22:45:37;6.97;;;5.10;;
21183;SDS011;18176;49.502;11.754;2023-04-15T22:49:37;6.80;;;5.10;;
21183;SDS011;18176;49.502;11.754;2023-04-15T22:53:38;6.53;;;5.60;;
21183;SDS011;18176;49.502;11.754;2023-04-15T22:57:41;6.30;;;5.23;;
21183;SDS011;18176;49.502;11.754;2023-04-15T23:01:41;5.70;;;4.90;;
21183;SDS011;18176;49.502;11.754;2023-04-15T23:05:41;6.30;;;5.50;;
21183;SDS011;18176;49.502;11.754;2023-04-15T23:09:41;5.93;;;5.23;;
21183;SDS011;18176;49.502;11.754;2023-04-15T23:13:44;6.10;;;4.90;;
21183;SDS011;18176;49.502;11.754;2023-04-15T23:17:46;5.03;;;4.47;;
21183;SDS011;18176;49.502;11.754;2023-04-15T23:21:46;5.37;;;4.87;;
21183;SDS011;18176;49.502;11.754;2023-04-15T23:25:47;5.10;;;4.43;;
21183;SDS011;18176;49.502;11.754;2023-04-15T23:29:50;5.07;;;4.57;;
21183;SDS011;18176;49.502;11.754;2023-04-15T23:33:50;5.50;;;4.87;;
21183;SDS011;18176;49.502;11.754;2023-04-15T23:37:50;6.13;;;5.23;;
21183;SDS011;18176;49.502;11.754;2023-04-15T23:41:50;7.13;;;5.30;;
21183;SDS011;18176;49.502;11.754;2023-04-15T23:45:54;7.43;;;6.13;;
21183;SDS011;18176;49.502;11.754;2023-04-15T23:49:54;6.30;;;5.40;;
21183;SDS011;18176;49.502;11.754;2023-04-15T23:53:55;6.30;;;4.97;;
21183;SDS011;18176;49.502;11.754;2023-04-15T23:57:55;5.27;;;4.77;;
